Time;durP1;ratioP1;P1;durP2;ratioP2;P2;SDS_P1;SDS_P2;PMS_P1;PMS_P2;Temp;Humidity;BMP_temperature;BMP_pressure;BME280_temperature;BME280_humidity;BME280_pressure;Samples;Min_cycle;Max_cycle;Signal;HPM_P1;HPM_P2
2023/08/31 00:00:13;;;;;;;10.25;2.58;;;;;;;21.54;59.34;100194.34;5023044;27;96749;-66
2023/08/31 00:02:40;;;;;;;3.38;2.40;;;;;;;21.47;59.59;100194.91;5024597;27;96953;-66
2023/08/31 00:05:07;;;;;;;2.47;2.20;;;;;;;21.57;59.30;100202.16;5019477;27;101822;-65
2023/08/31 00:07:34;;;;;;;6.55;2.83;;;;;;;21.62;59.13;100203.44;5024822;27;99341;-65
2023/08/31 00:10:06;;;;;;;3.85;2.30;;;;;;;21.53;59.35;100201.56;5029767;27;96902;-65
2023/08/31 00:12:32;;;;;;;4.75;2.28;;;;;;;21.32;59.87;100211.56;5027791;27;97176;-66
2023/08/31 00:14:58;;;;;;;4.20;2.00;;;;;;;21.48;59.60;100206.50;5025757;27;99205;-65
2023/08/31 00:17:27;;;;;;;5.38;2.40;;;;;;;21.45;59.56;100218.41;5024616;27;102642;-66
2023/08/31 00:19:54;;;;;;;2.55;2.35;;;;;;;21.45;59.90;100209.47;5030778;27;97355;-65
2023/08/31 00:22:20;;;;;;;3.05;2.25;;;;;;;21.32;60.13;100206.19;5025386;27;97235;-65
2023/08/31 00:24:47;;;;;;;2.80;2.28;;;;;;;21.58;59.53;100202.03;5026329;27;99014;-66
2023/08/31 00:27:15;;;;;;;2.47;2.28;;;;;;;21.52;59.90;100191.81;5024352;27;97745;-66
2023/08/31 00:29:43;;;;;;;5.35;2.95;;;;;;;21.63;59.63;100193.53;5025808;27;96743;-66
2023/08/31 00:32:09;;;;;;;3.13;2.47;;;;;;;21.39;60.15;100189.38;5025650;27;96859;-66
2023/08/31 00:34:37;;;;;;;2.63;2.25;;;;;;;21.56;59.72;100181.63;5022642;27;101731;-66
2023/08/31 00:37:04;;;;;;;3.67;2.22;;;;;;;21.37;60.79;100187.81;5024930;27;99206;-66
2023/08/31 00:39:33;;;;;;;2.55;2.28;;;;;;;21.41;60.45;100183.84;5025656;27;96779;-65
2023/08/31 00:42:00;;;;;;;3.25;2.42;;;;;;;21.44;60.31;100197.88;5026629;27;96793;-66
2023/08/31 00:44:26;;;;;;;3.58;2.38;;;;;;;21.25;61.10;100205.03;5025496;27;98894;-66
2023/08/31 00:46:54;;;;;;;2.00;1.90;;;;;;;20.90;62.54;100202.69;5025647;27;99329;-65
2023/08/31 00:49:21;;;;;;;3.80;2.38;;;;;;;20.93;62.74;100202.44;5024938;27;98936;-65
2023/08/31 00:51:50;;;;;;;3.13;2.13;;;;;;;20.85;63.50;100188.81;5026588;27;96860;-66
2023/08/31 00:54:18;;;;;;;4.80;2.50;;;;;;;21.01;62.68;100186.47;5026966;27;97687;-65
2023/08/31 00:56:44;;;;;;;2.85;2.38;;;;;;;21.01;63.12;100181.13;5027290;27;98881;-66
2023/08/31 00:59:11;;;;;;;2.20;2.00;;;;;;;21.12;62.56;100183.72;5022412;27;96756;-65
2023/08/31 01:01:40;;;;;;;3.83;2.38;;;;;;;21.17;62.74;100196.78;5024217;27;96950;-65
2023/08/31 01:04:19;;;;;;;2.13;1.90;;;;;;;20.74;64.32;100199.66;5022286;27;99300;-66
2023/08/31 01:06:59;;;;;;;3.42;2.47;;;;;;;20.68;65.18;100198.31;5025255;27;102123;-67
2023/08/31 01:09:32;;;;;;;3.10;2.80;;;;;;;20.38;66.54;100198.25;5023993;27;97880;-65
2023/08/31 01:12:03;;;;;;;3.08;2.80;;;;;;;20.47;67.04;100205.53;5026211;27;97066;-69
2023/08/31 01:14:43;;;;;;;2.85;2.65;;;;;;;20.18;69.10;100213.31;5024720;27;99846;-65
2023/08/31 01:17:12;;;;;;;3.75;3.17;;;;;;;20.36;68.55;100214.47;5027227;27;97648;-65
2023/08/31 01:19:49;;;;;;;4.82;3.05;;;;;;;20.36;69.20;100205.59;5027649;27;97772;-65
2023/08/31 01:22:25;;;;;;;3.70;3.17;;;;;;;20.42;68.81;100210.44;5029629;27;96815;-66
2023/08/31 01:24:54;;;;;;;5.97;3.08;;;;;;;20.34;68.82;100224.50;5025639;27;101272;-66
2023/08/31 01:27:21;;;;;;;3.35;3.05;;;;;;;19.75;71.38;100219.56;5028758;27;97975;-66
2023/08/31 01:29:48;;;;;;;3.83;3.53;;;;;;;19.77;71.57;100220.28;5024558;27;96974;-66
2023/08/31 01:32:14;;;;;;;3.70;3.40;;;;;;;19.92;71.17;100223.53;5027654;27;96714;-66
2023/08/31 01:34:40;;;;;;;2.95;2.33;;;;;;;19.76;70.53;100228.44;5025778;27;98951;-65
2023/08/31 01:37:12;;;;;;;2.90;2.60;;;;;;;19.61;71.55;100233.25;5028848;27;98989;-65
2023/08/31 01:39:45;;;;;;;4.10;2.33;;;;;;;19.50;71.26;100228.72;5024624;27;101491;-66
2023/08/31 01:42:19;;;;;;;4.28;2.65;;;;;;;19.68;71.10;100237.13;5029364;27;97431;-65
2023/08/31 01:44:48;;;;;;;3.22;2.40;;;;;;;20.11;68.83;100229.06;5022233;27;103520;-65
2023/08/31 01:47:17;;;;;;;2.97;2.17;;;;;;;20.17;67.63;100231.25;5016993;27;98739;-65
2023/08/31 01:49:43;;;;;;;4.22;2.10;;;;;;;20.16;67.75;100234.03;5023107;27;98937;-67
2023/08/31 01:52:10;;;;;;;2.45;2.05;;;;;;;19.89;68.69;100245.22;5015143;27;98660;-65
2023/08/31 01:54:38;;;;;;;5.15;2.88;;;;;;;19.97;68.86;100236.56;5024396;27;98964;-66
2023/08/31 01:57:05;;;;;;;3.67;1.90;;;;;;;20.16;68.94;100229.53;5019343;27;98948;-65
2023/08/31 01:59:33;;;;;;;2.13;1.92;;;;;;;20.50;67.27;100224.91;5025294;27;96982;-66
2023/08/31 02:02:00;;;;;;;3.20;2.10;;;;;;;20.37;67.66;100240.34;5022565;27;98999;-65
2023/08/31 02:04:26;;;;;;;2.83;2.00;;;;;;;20.36;68.15;100253.88;5017414;27;98845;-65
2023/08/31 02:06:53;;;;;;;2.33;1.80;;;;;;;20.27;67.87;100256.34;5016477;27;99391;-64
2023/08/31 02:09:21;;;;;;;2.30;1.85;;;;;;;20.12;68.66;100260.28;5025993;27;96794;-65
2023/08/31 02:11:48;;;;;;;2.17;1.90;;;;;;;19.92;69.40;100263.75;5025781;27;96876;-65
2023/08/31 02:14:15;;;;;;;1.83;1.50;;;;;;;19.68;69.67;100263.94;5022630;27;98836;-65
2023/08/31 02:16:42;;;;;;;1.73;1.58;;;;;;;19.22;70.31;100272.06;5026522;27;98886;-65
2023/08/31 02:19:11;;;;;;;2.60;1.70;;;;;;;19.17;70.79;100273.38;5027427;27;98847;-65
2023/08/31 02:21:38;;;;;;;2.15;1.55;;;;;;;19.39;69.72;100268.03;5024742;27;96977;-66
2023/08/31 02:24:05;;;;;;;1.67;1.55;;;;;;;19.56;69.83;100274.78;5027010;27;101723;-65
2023/08/31 02:26:32;;;;;;;3.40;1.65;;;;;;;19.27;70.65;100285.94;5023114;27;101537;-65
2023/08/31 02:28:58;;;;;;;1.75;1.55;;;;;;;19.32;70.34;100267.69;5023349;27;97814;-65
2023/08/31 02:31:24;;;;;;;2.38;1.88;;;;;;;19.46;69.54;100264.78;5025564;27;99286;-66
2023/08/31 02:33:52;;;;;;;3.75;1.60;;;;;;;19.27;68.70;100261.84;5025915;27;98036;-65
2023/08/31 02:36:20;;;;;;;3.60;1.60;;;;;;;19.33;69.26;100272.06;5023322;27;99365;-66
2023/08/31 02:38:46;;;;;;;2.60;1.60;;;;;;;19.42;68.95;100271.34;5024283;27;96976;-64
2023/08/31 02:41:12;;;;;;;2.17;1.83;;;;;;;19.73;68.35;100267.09;5025513;27;97753;-65
2023/08/31 02:43:40;;;;;;;2.13;1.63;;;;;;;19.72;68.56;100275.25;5023133;27;99221;-66
2023/08/31 02:46:06;;;;;;;1.67;1.58;;;;;;;19.59;68.35;100279.88;5019778;27;98985;-65
2023/08/31 02:48:33;;;;;;;1.80;1.70;;;;;;;19.65;68.07;100284.75;5016378;27;97933;-66
2023/08/31 02:51:02;;;;;;;2.20;1.70;;;;;;;19.29;69.34;100286.69;5021892;27;96885;-66
2023/08/31 02:53:30;;;;;;;2.63;1.52;;;;;;;19.35;69.95;100282.66;5026974;27;99317;-65
2023/08/31 02:55:56;;;;;;;1.55;1.45;;;;;;;19.26;70.33;100284.25;5025758;27;99030;-65
2023/08/31 02:58:22;;;;;;;1.50;1.38;;;;;;;19.27;69.55;100290.44;5020606;27;96911;-66
2023/08/31 03:00:49;;;;;;;1.65;1.30;;;;;;;19.49;68.76;100282.47;5023784;27;97005;-66
2023/08/31 03:03:16;;;;;;;1.70;1.58;;;;;;;19.66;68.51;100279.28;5027263;27;99115;-66
2023/08/31 03:05:42;;;;;;;1.70;1.55;;;;;;;19.53;67.98;100280.38;5023762;27;99239;-66
2023/08/31 03:08:11;;;;;;;1.50;1.40;;;;;;;19.63;67.42;100279.50;5025360;27;97059;-65
2023/08/31 03:10:38;;;;;;;2.40;1.90;;;;;;;19.58;67.21;100286.22;5024631;27;97690;-66
2023/08/31 03:13:04;;;;;;;2.35;1.90;;;;;;;19.61;67.68;100294.03;5023466;27;98965;-66
2023/08/31 03:15:33;;;;;;;4.10;1.73;;;;;;;19.42;67.82;100294.59;5028157;27;99037;-66
2023/08/31 03:18:00;;;;;;;2.03;1.83;;;;;;;19.50;68.28;100292.19;5021857;27;97872;-66
2023/08/31 03:20:26;;;;;;;3.45;1.70;;;;;;;19.47;68.30;100292.44;5031567;27;97114;-67
2023/08/31 03:22:52;;;;;;;2.55;1.55;;;;;;;19.39;67.58;100298.38;5020106;27;99490;-66
2023/08/31 03:25:20;;;;;;;2.17;1.50;;;;;;;19.25;68.27;100306.63;5028143;27;98851;-65
2023/08/31 03:27:46;;;;;;;1.55;1.45;;;;;;;19.16;68.09;100304.69;5022347;27;96912;-65
2023/08/31 03:30:14;;;;;;;3.28;1.35;;;;;;;19.42;67.89;100303.50;5028864;27;97012;-66
2023/08/31 03:32:40;;;;;;;2.33;1.77;;;;;;;19.45;68.01;100305.91;5027173;27;98917;-67
2023/08/31 03:35:08;;;;;;;1.70;1.38;;;;;;;19.28;68.17;100310.91;5025046;27;98896;-65
2023/08/31 03:37:34;;;;;;;3.85;1.70;;;;;;;19.42;68.32;100311.53;5023245;27;97572;-65
2023/08/31 03:40:01;;;;;;;2.88;2.20;;;;;;;19.47;67.89;100313.88;5030628;27;96978;-65
2023/08/31 03:42:28;;;;;;;2.90;1.90;;;;;;;19.17;68.78;100311.72;5025184;27;99401;-65
2023/08/31 03:44:54;;;;;;;2.22;1.70;;;;;;;19.16;69.08;100306.53;5022774;27;98834;-65
2023/08/31 03:47:21;;;;;;;2.40;1.85;;;;;;;19.26;69.12;100313.69;5024544;27;97170;-66
2023/08/31 03:49:47;;;;;;;2.42;1.70;;;;;;;19.35;69.22;100313.00;5025389;27;100023;-66
2023/08/31 03:52:14;;;;;;;3.50;1.98;;;;;;;18.97;70.33;100309.78;5024039;27;99607;-65
2023/08/31 03:54:40;;;;;;;3.45;2.40;;;;;;;18.99;70.66;100310.47;5023508;27;99220;-65
2023/08/31 03:57:06;;;;;;;3.22;2.28;;;;;;;18.90;71.71;100320.09;5023515;27;96774;-65
2023/08/31 03:59:34;;;;;;;4.65;3.05;;;;;;;18.96;71.55;100314.28;5026820;27;96961;-65
2023/08/31 04:02:00;;;;;;;3.22;2.47;;;;;;;19.17;70.89;100322.44;5022332;27;99244;-65
2023/08/31 04:04:27;;;;;;;3.10;2.58;;;;;;;19.22;71.15;100333.69;5024349;27;98953;-64
2023/08/31 04:06:53;;;;;;;4.07;2.67;;;;;;;19.24;71.51;100330.84;5025456;27;96862;-64
2023/08/31 04:09:19;;;;;;;4.75;2.40;;;;;;;19.42;71.19;100332.13;5025797;27;96861;-64
2023/08/31 04:11:46;;;;;;;4.03;2.80;;;;;;;19.37;72.00;100334.28;5024603;27;99423;-64
2023/08/31 04:14:13;;;;;;;5.95;2.95;;;;;;;19.33;72.39;100327.47;5017048;27;101969;-64
2023/08/31 04:16:40;;;;;;;3.40;2.60;;;;;;;19.17;73.25;100333.16;5024930;27;97097;-64
2023/08/31 04:19:07;;;;;;;4.18;3.13;;;;;;;19.25;72.17;100345.97;5026768;27;97792;-66
2023/08/31 04:21:33;;;;;;;4.25;3.35;;;;;;;19.06;72.99;100336.69;5022287;27;98843;-65
2023/08/31 04:24:00;;;;;;;4.78;3.15;;;;;;;19.07;73.54;100342.88;5026618;27;99267;-66
2023/08/31 04:26:27;;;;;;;4.00;3.55;;;;;;;18.93;73.58;100343.09;5024367;27;97740;-65
2023/08/31 04:28:54;;;;;;;4.32;3.08;;;;;;;19.01;73.98;100343.34;5023937;27;97532;-65
2023/08/31 04:31:20;;;;;;;4.93;3.33;;;;;;;18.94;73.98;100348.31;5025420;27;97839;-65
2023/08/31 04:33:48;;;;;;;4.70;3.70;;;;;;;19.08;74.16;100342.78;5027270;27;98828;-65
2023/08/31 04:36:15;;;;;;;5.00;3.80;;;;;;;19.16;73.82;100347.53;5028172;27;98003;-64
2023/08/31 04:38:41;;;;;;;8.02;3.60;;;;;;;18.66;75.60;100351.38;5027886;27;96912;-65
2023/08/31 04:41:11;;;;;;;6.55;4.25;;;;;;;18.78;75.81;100350.44;5027837;27;98974;-65
2023/08/31 04:43:37;;;;;;;4.20;3.80;;;;;;;18.82;75.60;100359.13;5028772;27;99078;-66
2023/08/31 04:46:04;;;;;;;6.63;4.25;;;;;;;18.83;76.08;100353.66;5027039;27;97593;-66
2023/08/31 04:48:31;;;;;;;5.90;4.00;;;;;;;19.00;75.77;100355.03;5022153;27;98709;-65
2023/08/31 04:50:58;;;;;;;208.07;157.50;;;;;;;19.04;75.56;100353.81;5017734;27;101675;-66
2023/08/31 04:53:25;;;;;;;12.35;5.60;;;;;;;19.13;75.69;100360.31;5020674;27;102078;-65
2023/08/31 04:55:51;;;;;;;4.55;4.15;;;;;;;19.03;75.71;100354.81;5028710;27;97715;-66
2023/08/31 04:58:18;;;;;;;6.20;4.60;;;;;;;19.31;74.92;100358.88;5028018;27;100317;-65
2023/08/31 05:00:45;;;;;;;6.93;4.65;;;;;;;19.30;74.83;100352.66;5022109;27;98857;-66
2023/08/31 05:03:11;;;;;;;8.40;5.03;;;;;;;19.25;74.84;100352.16;5024433;27;99051;-64
2023/08/31 05:05:38;;;;;;;16.63;11.48;;;;;;;19.06;75.84;100357.25;5024571;27;96944;-66
2023/08/31 05:08:06;;;;;;;6.32;5.00;;;;;;;19.19;75.50;100355.31;5024638;27;100204;-65
2023/08/31 05:10:33;;;;;;;8.15;4.75;;;;;;;19.19;75.18;100360.69;5021881;27;98900;-67
2023/08/31 05:13:00;;;;;;;5.47;4.13;;;;;;;19.14;75.83;100365.53;5021714;27;98117;-65
2023/08/31 05:15:27;;;;;;;8.23;4.97;;;;;;;19.19;75.17;100357.16;5020236;27;96964;-66
2023/08/31 05:17:53;;;;;;;7.35;4.57;;;;;;;19.48;74.60;100367.34;5020974;27;96877;-66
2023/08/31 05:20:21;;;;;;;5.43;4.32;;;;;;;19.38;74.04;100363.63;5015177;27;100815;-66
2023/08/31 05:22:47;;;;;;;5.85;4.93;;;;;;;19.35;73.58;100366.56;5017465;27;98872;-65
2023/08/31 05:25:15;;;;;;;7.40;5.10;;;;;;;19.22;74.26;100368.50;5017351;27;99668;-65
2023/08/31 05:27:42;;;;;;;6.63;5.10;;;;;;;19.20;74.58;100359.72;5025347;27;97634;-66
2023/08/31 05:30:09;;;;;;;6.05;4.70;;;;;;;19.19;74.57;100366.03;5025104;27;101539;-66
2023/08/31 05:32:35;;;;;;;6.60;4.72;;;;;;;19.27;74.84;100371.66;5024815;27;98926;-66
2023/08/31 05:35:01;;;;;;;7.50;5.03;;;;;;;19.37;74.20;100382.50;5021001;27;96859;-65
2023/08/31 05:37:34;;;;;;;9.30;5.20;;;;;;;19.45;73.91;100385.44;5026263;27;96831;-65
2023/08/31 05:40:00;;;;;;;6.10;5.40;;;;;;;19.42;73.74;100391.06;5020607;27;101955;-65
2023/08/31 05:42:28;;;;;;;8.50;5.30;;;;;;;19.30;74.79;100391.97;5022934;27;99349;-65
2023/08/31 05:44:55;;;;;;;8.52;5.75;;;;;;;19.35;73.62;100400.53;5021747;27;97643;-65
2023/08/31 05:47:25;;;;;;;10.32;5.57;;;;;;;19.35;74.29;100401.41;5020393;27;96838;-66
2023/08/31 05:49:52;;;;;;;5.75;4.80;;;;;;;19.45;74.17;100402.38;5020152;27;98241;-66
2023/08/31 05:52:18;;;;;;;5.95;4.88;;;;;;;19.24;75.07;100398.66;5021848;27;98925;-65
2023/08/31 05:54:44;;;;;;;6.85;5.30;;;;;;;19.31;74.58;100410.63;5020109;27;97228;-65
2023/08/31 05:57:11;;;;;;;7.45;5.45;;;;;;;19.22;74.68;100403.31;5025597;27;96855;-67
2023/08/31 05:59:39;;;;;;;8.32;5.72;;;;;;;19.53;74.14;100400.97;5022829;27;99118;-65
2023/08/31 06:02:07;;;;;;;12.38;6.28;;;;;;;19.77;72.91;100407.94;5022605;27;101540;-65
2023/08/31 06:04:34;;;;;;;9.48;5.32;;;;;;;19.54;73.22;100406.22;5023266;27;97274;-66
2023/08/31 06:07:01;;;;;;;9.40;5.68;;;;;;;19.62;73.48;100408.31;5024569;27;97114;-66
2023/08/31 06:09:27;;;;;;;6.57;5.55;;;;;;;19.36;73.00;100410.28;5027340;27;101809;-66
2023/08/31 06:11:54;;;;;;;8.75;4.90;;;;;;;19.29;73.75;100417.09;5028519;27;98251;-67
2023/08/31 06:14:20;;;;;;;8.65;5.20;;;;;;;19.45;73.24;100417.59;5026677;27;96805;-67
2023/08/31 06:16:48;;;;;;;5.55;4.97;;;;;;;19.43;73.37;100412.34;5028402;27;96854;-66
2023/08/31 06:19:16;;;;;;;10.35;5.13;;;;;;;19.44;73.09;100423.94;5026637;27;97856;-65
2023/08/31 06:21:42;;;;;;;8.20;5.50;;;;;;;19.37;73.29;100431.59;5027388;27;98812;-65
2023/08/31 06:24:10;;;;;;;10.43;5.35;;;;;;;19.40;72.84;100422.47;5030958;27;97185;-65
2023/08/31 06:26:37;;;;;;;7.80;4.82;;;;;;;19.53;72.96;100439.34;5022359;27;96828;-67
2023/08/31 06:29:04;;;;;;;8.98;5.38;;;;;;;19.61;72.23;100439.59;5028398;27;99260;-66
2023/08/31 06:31:30;;;;;;;6.20;4.80;;;;;;;19.71;72.04;100434.38;5019400;27;99645;-66
2023/08/31 06:33:58;;;;;;;5.95;5.10;;;;;;;19.82;71.39;100447.81;5018931;27;97815;-66
2023/08/31 06:36:25;;;;;;;7.60;5.28;;;;;;;19.87;71.13;100440.25;5023662;27;96904;-65
2023/08/31 06:38:51;;;;;;;8.02;5.15;;;;;;;19.94;70.58;100444.16;5028106;27;99306;-66
2023/08/31 06:41:18;;;;;;;7.93;5.38;;;;;;;19.65;71.15;100445.56;5030881;27;99007;-66
2023/08/31 06:43:45;;;;;;;5.32;4.82;;;;;;;19.53;71.79;100446.53;5028460;27;96728;-65
2023/08/31 06:46:12;;;;;;;10.70;5.30;;;;;;;19.60;71.87;100450.44;5024727;27;97314;-66
2023/08/31 06:48:38;;;;;;;6.70;4.90;;;;;;;19.88;71.15;100444.63;5027979;27;98959;-66
2023/08/31 06:51:06;;;;;;;8.30;5.63;;;;;;;19.98;69.91;100445.59;5026844;27;99176;-65
2023/08/31 06:53:32;;;;;;;6.88;4.88;;;;;;;19.99;69.62;100447.31;5025572;27;97599;-66
2023/08/31 06:55:59;;;;;;;11.32;5.25;;;;;;;19.94;69.76;100449.50;5027880;27;96812;-67
2023/08/31 06:58:25;;;;;;;12.73;7.00;;;;;;;19.83;69.01;100449.47;5027984;27;98985;-66
2023/08/31 07:00:52;;;;;;;10.98;6.00;;;;;;;19.69;69.18;100460.47;5025704;27;99674;-66
2023/08/31 07:03:18;;;;;;;11.18;5.63;;;;;;;19.74;69.89;100466.31;5027999;27;96837;-66
2023/08/31 07:05:44;;;;;;;11.23;5.40;;;;;;;19.93;69.37;100468.41;5021385;27;96881;-65
2023/08/31 07:08:12;;;;;;;4.97;4.25;;;;;;;19.97;68.92;100459.97;5020977;27;99353;-67
2023/08/31 07:10:39;;;;;;;7.25;4.80;;;;;;;19.74;69.37;100466.31;5025672;27;99654;-65
2023/08/31 07:13:06;;;;;;;7.22;4.53;;;;;;;19.62;69.82;100461.91;5024703;27;96872;-66
2023/08/31 07:15:32;;;;;;;9.80;4.35;;;;;;;19.86;68.35;100457.31;5017601;27;97408;-65
2023/08/31 07:17:59;;;;;;;8.73;4.95;;;;;;;19.57;69.42;100472.97;5018002;27;99365;-65
2023/08/31 07:20:25;;;;;;;8.23;5.07;;;;;;;19.58;68.89;100473.81;5020154;27;98698;-65
2023/08/31 07:22:52;;;;;;;8.10;4.10;;;;;;;19.75;68.09;100471.56;5024550;27;96715;-65
2023/08/31 07:25:20;;;;;;;7.75;3.67;;;;;;;19.73;68.38;100472.63;5022564;27;97189;-65
2023/08/31 07:27:46;;;;;;;11.65;4.13;;;;;;;19.81;66.58;100479.13;5022751;27;99218;-67
2023/08/31 07:30:13;;;;;;;7.90;4.00;;;;;;;19.71;66.69;100471.88;5022270;27;98897;-66
2023/08/31 07:32:39;;;;;;;5.93;4.00;;;;;;;19.96;66.25;100481.53;5021232;27;96827;-64
2023/08/31 07:35:06;;;;;;;8.20;4.45;;;;;;;19.61;66.37;100492.34;5029572;27;98096;-65
2023/08/31 07:37:33;;;;;;;11.10;4.25;;;;;;;19.83;65.73;100489.69;5022089;27;101175;-65
2023/08/31 07:39:59;;;;;;;10.63;3.97;;;;;;;19.76;65.46;100504.56;5021590;27;98873;-66
2023/08/31 07:42:27;;;;;;;7.50;3.75;;;;;;;19.98;64.42;100498.38;5025188;27;97315;-67
2023/08/31 07:44:54;;;;;;;7.82;3.50;;;;;;;20.25;63.49;100499.75;5026319;27;97000;-66
2023/08/31 07:47:20;;;;;;;5.72;3.50;;;;;;;20.47;62.61;100506.97;5019403;27;98251;-65
2023/08/31 07:49:46;;;;;;;8.50;4.10;;;;;;;20.60;63.25;100504.16;5025079;27;99108;-66
2023/08/31 07:52:13;;;;;;;5.55;3.17;;;;;;;20.62;62.47;100507.56;5025839;27;96782;-66
2023/08/31 07:54:39;;;;;;;12.25;3.50;;;;;;;20.30;63.65;100508.28;5024084;27;96936;-66
2023/08/31 07:57:06;;;;;;;4.85;3.00;;;;;;;20.24;64.48;100515.97;5025710;27;98602;-66
2023/08/31 07:59:33;;;;;;;6.53;2.92;;;;;;;19.64;64.61;100522.44;5020678;27;101161;-66
2023/08/31 08:02:00;;;;;;;8.48;3.00;;;;;;;19.70;64.79;100524.66;5021938;27;99246;-66
2023/08/31 08:04:27;;;;;;;5.55;2.92;;;;;;;19.73;63.44;100528.94;5021675;27;100159;-66
2023/08/31 08:06:54;;;;;;;5.13;2.40;;;;;;;19.71;63.32;100536.22;5019010;27;99741;-66
2023/08/31 08:09:20;;;;;;;6.47;2.30;;;;;;;20.25;60.69;100531.94;5021309;27;101641;-66
2023/08/31 08:11:46;;;;;;;4.15;3.03;;;;;;;20.58;59.60;100532.94;5020119;27;97037;-66
2023/08/31 08:14:13;;;;;;;5.53;2.67;;;;;;;21.14;57.68;100535.50;5020941;27;97382;-66
2023/08/31 08:16:41;;;;;;;5.05;2.75;;;;;;;21.61;56.15;100535.13;5023808;27;100901;-66
2023/08/31 08:19:08;;;;;;;7.38;2.65;;;;;;;20.95;57.88;100542.41;5020697;27;98792;-66
2023/08/31 08:21:34;;;;;;;5.95;2.88;;;;;;;21.35;56.63;100550.75;5027298;27;97063;-66
2023/08/31 08:24:01;;;;;;;3.67;2.08;;;;;;;20.88;56.58;100537.66;5026229;27;96957;-66
2023/08/31 08:26:28;;;;;;;3.03;2.10;;;;;;;21.24;55.89;100537.34;5015128;27;99320;-67
2023/08/31 08:28:54;;;;;;;5.93;2.10;;;;;;;21.04;56.41;100530.06;5025000;27;99535;-66
2023/08/31 08:31:20;;;;;;;6.00;2.28;;;;;;;21.55;55.86;100522.19;5023993;27;97088;-66
2023/08/31 08:33:48;;;;;;;6.07;1.90;;;;;;;21.86;54.21;100533.88;5025576;27;96938;-66
2023/08/31 08:36:15;;;;;;;4.75;1.73;;;;;;;22.01;53.45;100532.59;5021411;27;99102;-65
2023/08/31 08:38:42;;;;;;;8.65;1.77;;;;;;;22.42;52.34;100528.97;5021568;27;100281;-65
2023/08/31 08:41:08;;;;;;;6.28;2.00;;;;;;;22.52;51.80;100523.63;5024705;27;97378;-64
2023/08/31 08:43:36;;;;;;;3.92;1.80;;;;;;;22.36;50.66;100529.53;5021665;27;96909;-65
2023/08/31 08:46:05;;;;;;;6.20;1.55;;;;;;;22.10;51.63;100526.44;5018046;27;98906;-65
2023/08/31 08:48:34;;;;;;;4.57;1.35;;;;;;;22.23;51.48;100531.59;5025480;27;99798;-66
2023/08/31 08:51:03;;;;;;;2.13;1.42;;;;;;;22.06;50.86;100524.97;5024951;27;97267;-66
2023/08/31 08:53:29;;;;;;;4.82;1.20;;;;;;;21.75;51.64;100531.25;5020788;27;96992;-66
2023/08/31 08:55:59;;;;;;;3.00;1.27;;;;;;;21.36;52.01;100541.72;5017246;27;99065;-66
2023/08/31 08:58:25;;;;;;;4.07;1.38;;;;;;;21.25;53.12;100538.22;5025256;27;98815;-65
2023/08/31 09:00:55;;;;;;;3.72;1.60;;;;;;;21.65;52.72;100525.81;5019453;27;98823;-65
2023/08/31 09:03:21;;;;;;;6.05;1.48;;;;;;;21.62;51.54;100525.22;5017639;27;98517;-65
2023/08/31 09:05:48;;;;;;;3.97;1.33;;;;;;;21.98;51.46;100534.72;5025520;27;98919;-65
2023/08/31 09:08:15;;;;;;;3.33;1.48;;;;;;;22.03;51.10;100524.41;5024143;27;99153;-66
2023/08/31 09:10:44;;;;;;;5.40;1.35;;;;;;;22.40;50.50;100528.25;5024939;27;97628;-66
2023/08/31 09:13:11;;;;;;;3.58;1.23;;;;;;;22.84;49.56;100526.19;5027095;27;96844;-66
2023/08/31 09:15:44;;;;;;;5.65;1.48;;;;;;;23.41;47.37;100528.09;5026746;27;98830;-66
2023/08/31 09:18:23;;;;;;;4.72;1.13;;;;;;;23.11;46.09;100523.66;5027395;27;98884;-66
2023/08/31 09:20:49;;;;;;;3.92;1.27;;;;;;;22.45;49.11;100533.25;5022155;27;98223;-66
2023/08/31 09:23:18;;;;;;;6.55;1.30;;;;;;;22.07;49.14;100525.81;5022558;27;96930;-64
2023/08/31 09:25:46;;;;;;;5.28;1.20;;;;;;;21.89;49.48;100530.94;5025637;27;98971;-64
2023/08/31 09:28:13;;;;;;;6.90;1.50;;;;;;;22.17;49.01;100538.38;5025309;27;98953;-65
2023/08/31 09:30:41;;;;;;;3.78;1.25;;;;;;;21.90;50.10;100539.84;5022064;27;97035;-65
2023/08/31 09:33:08;;;;;;;2.78;1.27;;;;;;;21.80;50.65;100532.56;5019953;27;96813;-65
2023/08/31 09:35:35;;;;;;;3.80;1.33;;;;;;;21.60;51.56;100544.16;5023615;27;101586;-64
2023/08/31 09:38:02;;;;;;;6.75;1.65;;;;;;;21.61;51.35;100543.19;5021584;27;97719;-64
2023/08/31 09:40:30;;;;;;;4.65;1.40;;;;;;;21.48;51.12;100535.31;5026038;27;97218;-63
2023/08/31 09:42:56;;;;;;;5.05;1.02;;;;;;;21.61;50.29;100529.75;5025333;27;96905;-64
2023/08/31 09:45:30;;;;;;;8.05;1.52;;;;;;;22.07;49.42;100526.69;5024263;27;98956;-64
2023/08/31 09:47:57;;;;;;;3.38;1.27;;;;;;;22.63;47.51;100526.22;5024014;27;99169;-64
2023/08/31 09:50:25;;;;;;;7.00;1.23;;;;;;;23.49;45.69;100528.28;5021720;27;97293;-63
2023/08/31 09:52:55;;;;;;;9.20;1.80;;;;;;;24.19;44.21;100527.06;5021550;27;97216;-63
2023/08/31 09:55:25;;;;;;;4.10;2.17;;;;;;;24.29;42.86;100510.81;5017955;27;99237;-64
2023/08/31 09:57:55;;;;;;;3.55;1.00;;;;;;;24.17;42.73;100508.25;5018291;27;99481;-64
2023/08/31 10:00:22;;;;;;;2.83;1.30;;;;;;;23.69;40.89;100507.53;5020433;27;97268;-64
2023/08/31 10:02:50;;;;;;;3.15;1.10;;;;;;;23.85;40.37;100510.47;5021089;27;97543;-64
2023/08/31 10:05:16;;;;;;;4.53;0.90;;;;;;;23.97;40.49;100520.09;5025671;27;98122;-65
2023/08/31 10:07:44;;;;;;;21.63;1.75;;;;;;;23.71;40.94;100516.31;5019521;27;99513;-65
2023/08/31 10:10:11;;;;;;;5.35;1.38;;;;;;;22.88;42.98;100508.75;5020420;27;97628;-64
2023/08/31 10:12:39;;;;;;;4.35;1.08;;;;;;;22.78;42.43;100513.25;5020806;27;97504;-64
2023/08/31 10:15:08;;;;;;;8.00;1.58;;;;;;;22.76;42.81;100520.63;5019828;27;98357;-64
2023/08/31 10:17:35;;;;;;;6.38;1.63;;;;;;;23.50;41.69;100521.03;5022948;27;99052;-64
2023/08/31 10:20:02;;;;;;;2.92;1.00;;;;;;;23.51;40.72;100525.41;5013312;27;97192;-63
2023/08/31 10:22:29;;;;;;;3.75;1.00;;;;;;;23.23;41.13;100519.88;5017869;27;97115;-66
2023/08/31 10:24:59;;;;;;;4.18;1.00;;;;;;;23.03;41.28;100518.16;5016794;27;99415;-64
2023/08/31 10:27:26;;;;;;;9.07;1.50;;;;;;;23.00;41.90;100531.88;5020345;27;98103;-64
2023/08/31 10:29:52;;;;;;;4.95;0.85;;;;;;;22.72;43.19;100536.16;5014799;27;98004;-64
2023/08/31 10:32:21;;;;;;;3.17;1.27;;;;;;;21.80;45.01;100554.06;5023959;27;97374;-63
2023/08/31 10:35:06;;;;;;;4.10;0.98;;;;;;;21.08;49.69;100569.13;5022860;27;99544;-65
2023/08/31 10:37:33;;;;;;;1.58;0.68;;;;;;;21.17;49.76;100568.41;5025864;27;99480;-64
2023/08/31 10:40:08;;;;;;;2.90;1.02;;;;;;;21.03;51.83;100563.28;5026304;27;96764;-64
2023/08/31 10:42:42;;;;;;;4.05;1.17;;;;;;;20.77;54.15;100568.06;5023530;27;96807;-64
2023/08/31 10:45:09;;;;;;;1.98;1.10;;;;;;;20.49;54.44;100561.38;5019666;27;99469;-64
2023/08/31 10:47:41;;;;;;;2.28;1.00;;;;;;;20.78;53.98;100560.88;5018127;27;99710;-64
2023/08/31 10:50:20;;;;;;;1.92;1.10;;;;;;;20.98;53.41;100560.97;5024910;27;96789;-66
2023/08/31 10:52:46;;;;;;;1.98;0.73;;;;;;;21.10;54.93;100572.53;5026508;27;99414;-64
2023/08/31 10:55:13;;;;;;;2.97;0.85;;;;;;;21.42;55.71;100567.22;5019513;27;97566;-63
2023/08/31 10:57:41;;;;;;;1.13;0.80;;;;;;;21.55;55.30;100567.03;5022157;27;99135;-63
2023/08/31 11:00:10;;;;;;;1.65;0.90;;;;;;;21.75;54.63;100561.69;5018423;27;96791;-63
2023/08/31 11:02:38;;;;;;;1.98;0.95;;;;;;;21.94;54.59;100565.50;5015997;27;101308;-64
2023/08/31 11:05:10;;;;;;;3.40;1.20;;;;;;;21.90;52.39;100567.59;5019085;27;98682;-63
2023/08/31 11:07:37;;;;;;;3.55;1.02;;;;;;;22.15;53.14;100561.00;5025668;27;99098;-64
2023/08/31 11:10:09;;;;;;;2.83;0.73;;;;;;;21.99;53.46;100557.94;5018770;27;97078;-64
2023/08/31 11:12:35;;;;;;;1.77;0.95;;;;;;;22.27;54.27;100560.78;5020092;27;97724;-64
2023/08/31 11:15:03;;;;;;;2.53;1.15;;;;;;;22.25;53.96;100557.38;5024887;27;99027;-64
2023/08/31 11:17:30;;;;;;;2.63;1.08;;;;;;;22.44;52.23;100553.09;5021204;27;99204;-64
2023/08/31 11:19:57;;;;;;;7.63;1.42;;;;;;;22.59;52.76;100544.50;5027047;27;96949;-64
2023/08/31 11:22:25;;;;;;;5.65;1.20;;;;;;;22.55;51.67;100545.75;5025212;27;97413;-64
2023/08/31 11:24:51;;;;;;;6.20;1.10;;;;;;;22.46;49.66;100543.88;5026767;27;98963;-65